sensor_id;sensor_type;location;lat;lon;timestamp;pressure;altitude;pressure_sealevel;temperature
75428;BMP280;64008;55.612;37.698;2023-04-25T00:00:44;99500.34;;;20.96
75428;BMP280;64008;55.612;37.698;2023-04-25T00:03:09;99515.63;;;20.73
75428;BMP280;64008;55.612;37.698;2023-04-25T00:05:35;99507.53;;;20.50
75428;BMP280;64008;55.612;37.698;2023-04-25T00:08:03;99512.31;;;20.53
75428;BMP280;64008;55.612;37.698;2023-04-25T00:10:28;99506.72;;;20.14
75428;BMP280;64008;55.612;37.698;2023-04-25T00:12:54;99515.97;;;20.07
75428;BMP280;64008;55.612;37.698;2023-04-25T00:15:19;99512.28;;;20.03
75428;BMP280;64008;55.612;37.698;2023-04-25T00:17:45;99521.63;;;19.92
75428;BMP280;64008;55.612;37.698;2023-04-25T00:20:11;99512.69;;;19.97
75428;BMP280;64008;55.612;37.698;2023-04-25T00:22:37;99512.50;;;19.79
75428;BMP280;64008;55.612;37.698;2023-04-25T00:25:06;99510.69;;;19.75
75428;BMP280;64008;55.612;37.698;2023-04-25T00:27:32;99518.94;;;19.64
75428;BMP280;64008;55.612;37.698;2023-04-25T00:29:58;99519.81;;;19.60
75428;BMP280;64008;55.612;37.698;2023-04-25T00:32:23;99511.78;;;19.60
75428;BMP280;64008;55.612;37.698;2023-04-25T00:34:49;99517.38;;;19.44
75428;BMP280;64008;55.612;37.698;2023-04-25T00:37:15;99501.75;;;19.52
75428;BMP280;64008;55.612;37.698;2023-04-25T00:39:40;99503.00;;;19.54
75428;BMP280;64008;55.612;37.698;2023-04-25T00:42:06;99496.06;;;19.67
75428;BMP280;64008;55.612;37.698;2023-04-25T00:44:34;99501.09;;;19.41
75428;BMP280;64008;55.612;37.698;2023-04-25T00:47:01;99494.19;;;19.54
75428;BMP280;64008;55.612;37.698;2023-04-25T00:49:27;99490.84;;;19.48
75428;BMP280;64008;55.612;37.698;2023-04-25T00:51:52;99495.69;;;19.13
75428;BMP280;64008;55.612;37.698;2023-04-25T00:54:18;99488.59;;;19.36
75428;BMP280;64008;55.612;37.698;2023-04-25T00:56:44;99498.53;;;19.03
75428;BMP280;64008;55.612;37.698;2023-04-25T00:59:10;99485.34;;;19.07
75428;BMP280;64008;55.612;37.698;2023-04-25T01:01:36;99508.00;;;19.14
75428;BMP280;64008;55.612;37.698;2023-04-25T01:04:03;99495.56;;;19.37
75428;BMP280;64008;55.612;37.698;2023-04-25T01:06:28;99487.84;;;19.50
75428;BMP280;64008;55.612;37.698;2023-04-25T01:08:54;99489.19;;;19.33
75428;BMP280;64008;55.612;37.698;2023-04-25T01:11:19;99497.31;;;19.28
75428;BMP280;64008;55.612;37.698;2023-04-25T01:13:45;99486.59;;;19.28
75428;BMP280;64008;55.612;37.698;2023-04-25T01:16:11;99480.63;;;19.17
75428;BMP280;64008;55.612;37.698;2023-04-25T01:18:38;99482.53;;;18.98
75428;BMP280;64008;55.612;37.698;2023-04-25T01:21:12;99489.75;;;18.84
75428;BMP280;64008;55.612;37.698;2023-04-25T01:23:41;99477.91;;;18.66
75428;BMP280;64008;55.612;37.698;2023-04-25T01:26:10;99487.53;;;18.67
75428;BMP280;64008;55.612;37.698;2023-04-25T01:28:37;99485.25;;;18.79
75428;BMP280;64008;55.612;37.698;2023-04-25T01:31:06;99482.00;;;18.82
75428;BMP280;64008;55.612;37.698;2023-04-25T01:33:32;99482.53;;;18.98
75428;BMP280;64008;55.612;37.698;2023-04-25T01:35:57;99481.75;;;18.97
75428;BMP280;64008;55.612;37.698;2023-04-25T01:38:23;99475.03;;;18.62
75428;BMP280;64008;55.612;37.698;2023-04-25T01:40:51;99474.69;;;18.50
75428;BMP280;64008;55.612;37.698;2023-04-25T01:43:17;99465.84;;;18.49
75428;BMP280;64008;55.612;37.698;2023-04-25T01:45:43;99468.53;;;18.68
75428;BMP280;64008;55.612;37.698;2023-04-25T01:48:10;99465.00;;;18.73
75428;BMP280;64008;55.612;37.698;2023-04-25T01:50:38;99466.28;;;18.56
75428;BMP280;64008;55.612;37.698;2023-04-25T01:53:04;99461.25;;;18.55
75428;BMP280;64008;55.612;37.698;2023-04-25T01:55:30;99453.69;;;18.57
75428;BMP280;64008;55.612;37.698;2023-04-25T01:57:55;99454.56;;;18.52
75428;BMP280;64008;55.612;37.698;2023-04-25T02:00:21;99452.56;;;18.63
75428;BMP280;64008;55.612;37.698;2023-04-25T02:02:47;99452.28;;;18.65
75428;BMP280;64008;55.612;37.698;2023-04-25T02:05:13;99459.47;;;18.83
75428;BMP280;64008;55.612;37.698;2023-04-25T02:07:39;99471.41;;;18.91
75428;BMP280;64008;55.612;37.698;2023-04-25T02:10:04;99470.34;;;18.92
75428;BMP280;64008;55.612;37.698;2023-04-25T02:12:31;99466.63;;;18.88
75428;BMP280;64008;55.612;37.698;2023-04-25T02:14:57;99458.59;;;18.88
75428;BMP280;64008;55.612;37.698;2023-04-25T02:17:22;99464.72;;;18.55
75428;BMP280;64008;55.612;37.698;2023-04-25T02:19:48;99466.06;;;18.53
75428;BMP280;64008;55.612;37.698;2023-04-25T02:22:13;99463.91;;;18.55
75428;BMP280;64008;55.612;37.698;2023-04-25T02:24:39;99450.00;;;18.72
75428;BMP280;64008;55.612;37.698;2023-04-25T02:27:04;99459.50;;;18.64
75428;BMP280;64008;55.612;37.698;2023-04-25T02:29:30;99460.06;;;18.61
75428;BMP280;64008;55.612;37.698;2023-04-25T02:31:56;99457.63;;;18.84
75428;BMP280;64008;55.612;37.698;2023-04-25T02:34:21;99462.50;;;18.76
75428;BMP280;64008;55.612;37.698;2023-04-25T02:36:48;99469.56;;;18.72
75428;BMP280;64008;55.612;37.698;2023-04-25T02:39:13;99472.94;;;18.78
75428;BMP280;64008;55.612;37.698;2023-04-25T02:41:39;99469.66;;;19.00
75428;BMP280;64008;55.612;37.698;2023-04-25T02:44:04;99471.25;;;19.01
75428;BMP280;64008;55.612;37.698;2023-04-25T02:46:30;99463.53;;;19.13
75428;BMP280;64008;55.612;37.698;2023-04-25T02:48:55;99461.41;;;18.96
75428;BMP280;64008;55.612;37.698;2023-04-25T02:51:21;99465.09;;;19.00
75428;BMP280;64008;55.612;37.698;2023-04-25T02:53:46;99474.91;;;19.24
75428;BMP280;64008;55.612;37.698;2023-04-25T02:56:12;99474.75;;;19.15
75428;BMP280;64008;55.612;37.698;2023-04-25T02:58:37;99475.53;;;19.02
75428;BMP280;64008;55.612;37.698;2023-04-25T03:01:03;99477.41;;;19.02
75428;BMP280;64008;55.612;37.698;2023-04-25T03:03:28;99486.00;;;18.98
75428;BMP280;64008;55.612;37.698;2023-04-25T03:05:54;99483.63;;;18.97
75428;BMP280;64008;55.612;37.698;2023-04-25T03:08:20;99481.31;;;18.90
75428;BMP280;64008;55.612;37.698;2023-04-25T03:10:45;99479.16;;;18.92
75428;BMP280;64008;55.612;37.698;2023-04-25T03:13:11;99480.72;;;18.93
75428;BMP280;64008;55.612;37.698;2023-04-25T03:15:38;99491.69;;;19.11
75428;BMP280;64008;55.612;37.698;2023-04-25T03:18:04;99490.78;;;19.02
75428;BMP280;64008;55.612;37.698;2023-04-25T03:20:29;99486.72;;;18.85
75428;BMP280;64008;55.612;37.698;2023-04-25T03:22:55;99487.09;;;18.97
75428;BMP280;64008;55.612;37.698;2023-04-25T03:25:21;99487.97;;;18.74
75428;BMP280;64008;55.612;37.698;2023-04-25T03:27:46;99486.00;;;18.79
75428;BMP280;64008;55.612;37.698;2023-04-25T03:30:12;99487.00;;;18.70
75428;BMP280;64008;55.612;37.698;2023-04-25T03:32:37;99493.97;;;19.04
75428;BMP280;64008;55.612;37.698;2023-04-25T03:35:03;99490.41;;;18.89
75428;BMP280;64008;55.612;37.698;2023-04-25T03:37:29;99488.41;;;18.81
75428;BMP280;64008;55.612;37.698;2023-04-25T03:39:54;99492.41;;;18.84
75428;BMP280;64008;55.612;37.698;2023-04-25T03:42:20;99481.03;;;18.92
75428;BMP280;64008;55.612;37.698;2023-04-25T03:44:48;99484.59;;;18.87
75428;BMP280;64008;55.612;37.698;2023-04-25T03:47:14;99484.00;;;18.71
75428;BMP280;64008;55.612;37.698;2023-04-25T03:49:39;99473.28;;;18.71
75428;BMP280;64008;55.612;37.698;2023-04-25T03:52:05;99487.47;;;18.53
75428;BMP280;64008;55.612;37.698;2023-04-25T03:54:30;99491.09;;;18.62
75428;BMP280;64008;55.612;37.698;2023-04-25T03:56:56;99488.47;;;18.57
75428;BMP280;64008;55.612;37.698;2023-04-25T03:59:21;99486.41;;;18.92
75428;BMP280;64008;55.612;37.698;2023-04-25T04:01:47;99483.50;;;18.88
75428;BMP280;64008;55.612;37.698;2023-04-25T04:04:12;99478.31;;;19.11
75428;BMP280;64008;55.612;37.698;2023-04-25T04:06:39;99480.22;;;18.91
75428;BMP280;64008;55.612;37.698;2023-04-25T04:09:05;99482.31;;;18.75
75428;BMP280;64008;55.612;37.698;2023-04-25T04:11:34;99490.03;;;18.82
75428;BMP280;64008;55.612;37.698;2023-04-25T04:14:01;99488.25;;;18.91
75428;BMP280;64008;55.612;37.698;2023-04-25T04:16:27;99487.47;;;18.91
75428;BMP280;64008;55.612;37.698;2023-04-25T04:18:53;99483.78;;;18.87
75428;BMP280;64008;55.612;37.698;2023-04-25T04:21:18;99485.44;;;19.02
75428;BMP280;64008;55.612;37.698;2023-04-25T04:23:44;99480.81;;;18.88
75428;BMP280;64008;55.612;37.698;2023-04-25T04:26:10;99485.50;;;18.96
75428;BMP280;64008;55.612;37.698;2023-04-25T04:28:36;99483.13;;;18.95
75428;BMP280;64008;55.612;37.698;2023-04-25T04:31:03;99480.09;;;19.02
75428;BMP280;64008;55.612;37.698;2023-04-25T04:33:28;99480.63;;;19.17
75428;BMP280;64008;55.612;37.698;2023-04-25T04:35:56;99476.53;;;19.06
75428;BMP280;64008;55.612;37.698;2023-04-25T04:38:21;99488.06;;;19.20
75428;BMP280;64008;55.612;37.698;2023-04-25T04:40:47;99484.22;;;19.08
75428;BMP280;64008;55.612;37.698;2023-04-25T04:43:13;99479.69;;;19.08
75428;BMP280;64008;55.612;37.698;2023-04-25T04:45:42;99486.28;;;19.16
75428;BMP280;64008;55.612;37.698;2023-04-25T04:48:08;99483.44;;;19.40
75428;BMP280;64008;55.612;37.698;2023-04-25T04:50:33;99480.31;;;19.52
75428;BMP280;64008;55.612;37.698;2023-04-25T04:53:01;99467.75;;;19.33
75428;BMP280;64008;55.612;37.698;2023-04-25T04:55:27;99481.22;;;19.28
75428;BMP280;64008;55.612;37.698;2023-04-25T04:57:53;99480.25;;;19.24
75428;BMP280;64008;55.612;37.698;2023-04-25T05:00:18;99479.66;;;19.27
75428;BMP280;64008;55.612;37.698;2023-04-25T05:02:44;99470.16;;;19.35
75428;BMP280;64008;55.612;37.698;2023-04-25T05:05:09;99470.25;;;19.30
75428;BMP280;64008;55.612;37.698;2023-04-25T05:07:35;99469.13;;;19.31
75428;BMP280;64008;55.612;37.698;2023-04-25T05:10:01;99471.50;;;19.18
75428;BMP280;64008;55.612;37.698;2023-04-25T05:12:27;99467.81;;;19.14
75428;BMP280;64008;55.612;37.698;2023-04-25T05:14:52;99462.09;;;19.21
75428;BMP280;64008;55.612;37.698;2023-04-25T05:17:18;99460.63;;;19.29
75428;BMP280;64008;55.612;37.698;2023-04-25T05:19:43;99461.78;;;19.36
75428;BMP280;64008;55.612;37.698;2023-04-25T05:22:09;99463.50;;;19.46
75428;BMP280;64008;55.612;37.698;2023-04-25T05:24:34;99463.50;;;19.32
75428;BMP280;64008;55.612;37.698;2023-04-25T05:27:00;99463.13;;;19.39
75428;BMP280;64008;55.612;37.698;2023-04-25T05:29:25;99463.91;;;19.53
75428;BMP280;64008;55.612;37.698;2023-04-25T05:31:51;99464.59;;;19.45
75428;BMP280;64008;55.612;37.698;2023-04-25T05:34:17;99462.53;;;19.56
75428;BMP280;64008;55.612;37.698;2023-04-25T05:36:42;99461.44;;;19.57
75428;BMP280;64008;55.612;37.698;2023-04-25T05:39:07;99452.53;;;19.61
75428;BMP280;64008;55.612;37.698;2023-04-25T05:41:34;99451.03;;;19.83
75428;BMP280;64008;55.612;37.698;2023-04-25T05:43:59;99452.91;;;19.82
75428;BMP280;64008;55.612;37.698;2023-04-25T05:46:25;99453.69;;;19.83
75428;BMP280;64008;55.612;37.698;2023-04-25T05:48:50;99448.44;;;19.64
75428;BMP280;64008;55.612;37.698;2023-04-25T05:51:16;99449.25;;;19.64
75428;BMP280;64008;55.612;37.698;2023-04-25T05:53:43;99451.09;;;19.64
75428;BMP280;64008;55.612;37.698;2023-04-25T05:56:09;99453.72;;;19.69
75428;BMP280;64008;55.612;37.698;2023-04-25T05:58:34;99442.09;;;19.87
75428;BMP280;64008;55.612;37.698;2023-04-25T06:01:00;99434.94;;;19.83
75428;BMP280;64008;55.612;37.698;2023-04-25T06:03:25;99437.00;;;19.86
75428;BMP280;64008;55.612;37.698;2023-04-25T06:05:51;99437.44;;;19.79
75428;BMP280;64008;55.612;37.698;2023-04-25T06:08:16;99431.03;;;19.89
75428;BMP280;64008;55.612;37.698;2023-04-25T06:10:42;99419.97;;;19.82
75428;BMP280;64008;55.612;37.698;2023-04-25T06:13:07;99421.03;;;19.81
75428;BMP280;64008;55.612;37.698;2023-04-25T06:15:33;99426.72;;;19.93
75428;BMP280;64008;55.612;37.698;2023-04-25T06:17:58;99422.91;;;19.94
75428;BMP280;64008;55.612;37.698;2023-04-25T06:20:24;99415.56;;;19.86
75428;BMP280;64008;55.612;37.698;2023-04-25T06:22:50;99420.63;;;19.87
75428;BMP280;64008;55.612;37.698;2023-04-25T06:25:17;99408.31;;;20.00
75428;BMP280;64008;55.612;37.698;2023-04-25T06:27:42;99405.31;;;20.02
75428;BMP280;64008;55.612;37.698;2023-04-25T06:30:08;99398.19;;;19.97
75428;BMP280;64008;55.612;37.698;2023-04-25T06:32:34;99402.72;;;20.11
75428;BMP280;64008;55.612;37.698;2023-04-25T06:35:00;99410.38;;;20.03
75428;BMP280;64008;55.612;37.698;2023-04-25T06:37:26;99407.81;;;19.98
75428;BMP280;64008;55.612;37.698;2023-04-25T06:39:52;99409.75;;;20.06
75428;BMP280;64008;55.612;37.698;2023-04-25T06:42:17;99404.00;;;19.99
75428;BMP280;64008;55.612;37.698;2023-04-25T06:44:43;99410.53;;;20.21
75428;BMP280;64008;55.612;37.698;2023-04-25T06:47:08;99405.13;;;20.35
75428;BMP280;64008;55.612;37.698;2023-04-25T06:49:34;99413.78;;;20.54
75428;BMP280;64008;55.612;37.698;2023-04-25T06:51:59;99407.81;;;20.57
75428;BMP280;64008;55.612;37.698;2023-04-25T06:54:25;99408.63;;;20.58
75428;BMP280;64008;55.612;37.698;2023-04-25T06:56:53;99407.50;;;20.59
75428;BMP280;64008;55.612;37.698;2023-04-25T06:59:18;99410.78;;;20.56
75428;BMP280;64008;55.612;37.698;2023-04-25T07:01:44;99415.31;;;20.69
75428;BMP280;64008;55.612;37.698;2023-04-25T07:04:09;99413.84;;;20.63
75428;BMP280;64008;55.612;37.698;2023-04-25T07:06:35;99410.78;;;20.56
75428;BMP280;64008;55.612;37.698;2023-04-25T07:09:03;99405.31;;;20.61
75428;BMP280;64008;55.612;37.698;2023-04-25T07:11:29;99409.69;;;20.79
75428;BMP280;64008;55.612;37.698;2023-04-25T07:13:55;99406.44;;;21.22
75428;BMP280;64008;55.612;37.698;2023-04-25T07:16:20;99411.00;;;21.13
75428;BMP280;64008;55.612;37.698;2023-04-25T07:18:46;99407.53;;;21.12
75428;BMP280;64008;55.612;37.698;2023-04-25T07:21:11;99406.72;;;21.12
75428;BMP280;64008;55.612;37.698;2023-04-25T07:23:37;99403.69;;;21.53
75428;BMP280;64008;55.612;37.698;2023-04-25T07:26:06;99400.56;;;21.69
75428;BMP280;64008;55.612;37.698;2023-04-25T07:28:31;99402.13;;;21.61
75428;BMP280;64008;55.612;37.698;2023-04-25T07:30:57;99404.59;;;21.40
75428;BMP280;64008;55.612;37.698;2023-04-25T07:33:23;99405.66;;;21.22
75428;BMP280;64008;55.612;37.698;2023-04-25T07:35:49;99406.97;;;21.33
75428;BMP280;64008;55.612;37.698;2023-04-25T07:38:15;99406.59;;;21.17
75428;BMP280;64008;55.612;37.698;2023-04-25T07:40:40;99396.44;;;21.14
75428;BMP280;64008;55.612;37.698;2023-04-25T07:43:06;99396.69;;;21.44
75428;BMP280;64008;55.612;37.698;2023-04-25T07:45:31;99406.88;;;21.55
75428;BMP280;64008;55.612;37.698;2023-04-25T07:47:57;99403.53;;;21.50
75428;BMP280;64008;55.612;37.698;2023-04-25T07:50:23;99404.44;;;21.36
75428;BMP280;64008;55.612;37.698;2023-04-25T07:52:48;99408.38;;;21.39
75428;BMP280;64008;55.612;37.698;2023-04-25T07:55:14;99409.69;;;21.50
75428;BMP280;64008;55.612;37.698;2023-04-25T07:57:39;99400.88;;;21.58
75428;BMP280;64008;55.612;37.698;2023-04-25T08:00:06;99401.63;;;21.50
75428;BMP280;64008;55.612;37.698;2023-04-25T08:02:35;99404.63;;;21.49
75428;BMP280;64008;55.612;37.698;2023-04-25T08:05:01;99401.31;;;21.52
75428;BMP280;64008;55.612;37.698;2023-04-25T08:07:27;99407.72;;;22.08
75428;BMP280;64008;55.612;37.698;2023-04-25T08:09:53;99396.66;;;22.01
75428;BMP280;64008;55.612;37.698;2023-04-25T08:12:19;99390.78;;;22.34
75428;BMP280;64008;55.612;37.698;2023-04-25T08:14:44;99399.16;;;22.41
75428;BMP280;64008;55.612;37.698;2023-04-25T08:17:10;99402.97;;;22.40
75428;BMP280;64008;55.612;37.698;2023-04-25T08:19:35;99392.19;;;22.31
75428;BMP280;64008;55.612;37.698;2023-04-25T08:22:01;99390.94;;;22.46
75428;BMP280;64008;55.612;37.698;2023-04-25T08:24:26;99385.84;;;22.53
75428;BMP280;64008;55.612;37.698;2023-04-25T08:26:52;99393.66;;;22.37
75428;BMP280;64008;55.612;37.698;2023-04-25T08:29:18;99387.09;;;22.56
75428;BMP280;64008;55.612;37.698;2023-04-25T08:31:43;99382.06;;;22.45
75428;BMP280;64008;55.612;37.698;2023-04-25T08:34:10;99377.47;;;22.46
75428;BMP280;64008;55.612;37.698;2023-04-25T08:36:36;99385.25;;;22.30
75428;BMP280;64008;55.612;37.698;2023-04-25T08:39:01;99386.50;;;22.41
75428;BMP280;64008;55.612;37.698;2023-04-25T08:41:27;99385.06;;;22.44
75428;BMP280;64008;55.612;37.698;2023-04-25T08:43:55;99369.81;;;22.65
75428;BMP280;64008;55.612;37.698;2023-04-25T08:46:21;99372.53;;;22.57
75428;BMP280;64008;55.612;37.698;2023-04-25T08:48:48;99366.56;;;22.25
75428;BMP280;64008;55.612;37.698;2023-04-25T08:51:22;99366.34;;;22.56
75428;BMP280;64008;55.612;37.698;2023-04-25T08:53:51;99361.63;;;22.44
75428;BMP280;64008;55.612;37.698;2023-04-25T08:56:17;99364.13;;;22.58
75428;BMP280;64008;55.612;37.698;2023-04-25T08:58:48;99369.03;;;22.65
75428;BMP280;64008;55.612;37.698;2023-04-25T09:01:13;99360.97;;;22.65
75428;BMP280;64008;55.612;37.698;2023-04-25T09:03:39;99362.50;;;22.74
75428;BMP280;64008;55.612;37.698;2023-04-25T09:06:05;99362.06;;;22.55
75428;BMP280;64008;55.612;37.698;2023-04-25T09:08:31;99360.84;;;22.35
75428;BMP280;64008;55.612;37.698;2023-04-25T09:10:56;99351.72;;;22.74
75428;BMP280;64008;55.612;37.698;2023-04-25T09:13:27;99342.09;;;23.03
75428;BMP280;64008;55.612;37.698;2023-04-25T09:15:54;99339.44;;;23.24
75428;BMP280;64008;55.612;37.698;2023-04-25T09:20:54;99338.63;;;23.24
75428;BMP280;64008;55.612;37.698;2023-04-25T09:23:21;99336.81;;;23.57
75428;BMP280;64008;55.612;37.698;2023-04-25T09:25:51;99332.66;;;23.81
75428;BMP280;64008;55.612;37.698;2023-04-25T09:28:23;99328.91;;;23.94
75428;BMP280;64008;55.612;37.698;2023-04-25T09:30:54;99330.75;;;23.81
75428;BMP280;64008;55.612;37.698;2023-04-25T09:33:20;99319.75;;;24.07
75428;BMP280;64008;55.612;37.698;2023-04-25T09:35:52;99329.66;;;24.28
75428;BMP280;64008;55.612;37.698;2023-04-25T09:38:20;99325.59;;;24.22
75428;BMP280;64008;55.612;37.698;2023-04-25T09:40:47;99317.66;;;23.92
75428;BMP280;64008;55.612;37.698;2023-04-25T09:43:22;99312.72;;;23.94
75428;BMP280;64008;55.612;37.698;2023-04-25T09:45:48;99314.09;;;24.00
75428;BMP280;64008;55.612;37.698;2023-04-25T09:48:19;99320.56;;;23.87
75428;BMP280;64008;55.612;37.698;2023-04-25T09:51:10;99310.50;;;23.75
75428;BMP280;64008;55.612;37.698;2023-04-25T09:53:35;99315.31;;;23.49
75428;BMP280;64008;55.612;37.698;2023-04-25T09:56:04;99305.63;;;24.02
75428;BMP280;64008;55.612;37.698;2023-04-25T09:58:30;99309.78;;;23.99
75428;BMP280;64008;55.612;37.698;2023-04-25T10:01:01;99319.31;;;24.18
75428;BMP280;64008;55.612;37.698;2023-04-25T10:03:30;99300.63;;;24.25
75428;BMP280;64008;55.612;37.698;2023-04-25T10:05:59;99302.78;;;24.19
75428;BMP280;64008;55.612;37.698;2023-04-25T10:08:25;99290.91;;;24.45
75428;BMP280;64008;55.612;37.698;2023-04-25T10:10:52;99299.09;;;24.61
75428;BMP280;64008;55.612;37.698;2023-04-25T10:13:18;99297.84;;;24.83
75428;BMP280;64008;55.612;37.698;2023-04-25T10:15:43;99333.66;;;24.80
75428;BMP280;64008;55.612;37.698;2023-04-25T10:18:10;99343.94;;;24.86
75428;BMP280;64008;55.612;37.698;2023-04-25T10:20:37;99333.91;;;24.87
75428;BMP280;64008;55.612;37.698;2023-04-25T10:25:39;99325.84;;;25.15
75428;BMP280;64008;55.612;37.698;2023-04-25T10:28:05;99320.41;;;25.27
75428;BMP280;64008;55.612;37.698;2023-04-25T10:30:31;99318.66;;;25.19
75428;BMP280;64008;55.612;37.698;2023-04-25T10:32:59;99266.69;;;25.13
75428;BMP280;64008;55.612;37.698;2023-04-25T10:35:28;99272.78;;;25.22
75428;BMP280;64008;55.612;37.698;2023-04-25T10:38:08;99263.09;;;25.21
75428;BMP280;64008;55.612;37.698;2023-04-25T10:40:34;99265.84;;;25.37
75428;BMP280;64008;55.612;37.698;2023-04-25T10:48:45;99244.81;;;24.90
75428;BMP280;64008;55.612;37.698;2023-04-25T10:51:16;99252.91;;;24.78
75428;BMP280;64008;55.612;37.698;2023-04-25T10:53:47;99250.13;;;24.74
75428;BMP280;64008;55.612;37.698;2023-04-25T10:56:19;99247.09;;;24.64
75428;BMP280;64008;55.612;37.698;2023-04-25T10:58:46;99253.63;;;24.75
75428;BMP280;64008;55.612;37.698;2023-04-25T11:01:20;99239.06;;;24.92
75428;BMP280;64008;55.612;37.698;2023-04-25T11:03:45;99246.63;;;24.86
75428;BMP280;64008;55.612;37.698;2023-04-25T11:06:22;99232.88;;;24.79
75428;BMP280;64008;55.612;37.698;2023-04-25T11:08:50;99231.19;;;24.87
75428;BMP280;64008;55.612;37.698;2023-04-25T11:11:17;99230.88;;;24.76
75428;BMP280;64008;55.612;37.698;2023-04-25T11:13:43;99222.22;;;24.21
75428;BMP280;64008;55.612;37.698;2023-04-25T11:16:09;99227.63;;;24.21
75428;BMP280;64008;55.612;37.698;2023-04-25T11:18:34;99217.63;;;24.22
75428;BMP280;64008;55.612;37.698;2023-04-25T11:21:00;99214.25;;;24.13
75428;BMP280;64008;55.612;37.698;2023-04-25T11:23:26;99211.56;;;24.37
75428;BMP280;64008;55.612;37.698;2023-04-25T11:25:55;99212.00;;;24.39
75428;BMP280;64008;55.612;37.698;2023-04-25T11:28:21;99203.09;;;24.63
75428;BMP280;64008;55.612;37.698;2023-04-25T11:30:50;99206.81;;;24.59
75428;BMP280;64008;55.612;37.698;2023-04-25T11:33:16;99211.53;;;24.49
75428;BMP280;64008;55.612;37.698;2023-04-25T11:35:42;99206.16;;;24.37
75428;BMP280;64008;55.612;37.698;2023-04-25T11:38:07;99198.72;;;24.09
75428;BMP280;64008;55.612;37.698;2023-04-25T11:40:35;99192.31;;;24.26
75428;BMP280;64008;55.612;37.698;2023-04-25T11:43:01;99198.50;;;24.15
75428;BMP280;64008;55.612;37.698;2023-04-25T11:45:28;99189.06;;;23.96
75428;BMP280;64008;55.612;37.698;2023-04-25T11:47:55;99191.94;;;23.91
75428;BMP280;64008;55.612;37.698;2023-04-25T11:50:20;99190.63;;;24.09
75428;BMP280;64008;55.612;37.698;2023-04-25T11:52:47;99183.88;;;24.28
75428;BMP280;64008;55.612;37.698;2023-04-25T11:55:18;99180.50;;;24.43
75428;BMP280;64008;55.612;37.698;2023-04-25T11:57:46;99173.06;;;24.52
75428;BMP280;64008;55.612;37.698;2023-04-25T12:00:18;99164.06;;;24.48
75428;BMP280;64008;55.612;37.698;2023-04-25T12:02:47;99174.66;;;24.41
75428;BMP280;64008;55.612;37.698;2023-04-25T12:05:14;99163.47;;;24.43
75428;BMP280;64008;55.612;37.698;2023-04-25T12:07:43;99167.66;;;24.28
75428;BMP280;64008;55.612;37.698;2023-04-25T12:10:12;99170.72;;;24.14
75428;BMP280;64008;55.612;37.698;2023-04-25T12:12:41;99161.16;;;23.92
75428;BMP280;64008;55.612;37.698;2023-04-25T12:15:16;99164.88;;;24.12
75428;BMP280;64008;55.612;37.698;2023-04-25T12:17:54;99156.75;;;24.24
75428;BMP280;64008;55.612;37.698;2023-04-25T12:20:25;99153.50;;;24.43
75428;BMP280;64008;55.612;37.698;2023-04-25T12:22:52;99145.28;;;24.40
75428;BMP280;64008;55.612;37.698;2023-04-25T12:28:18;99138.56;;;23.72
75428;BMP280;64008;55.612;37.698;2023-04-25T12:31:04;99135.84;;;23.84
75428;BMP280;64008;55.612;37.698;2023-04-25T12:33:34;99123.25;;;24.01
75428;BMP280;64008;55.612;37.698;2023-04-25T12:36:02;99134.03;;;24.38
75428;BMP280;64008;55.612;37.698;2023-04-25T12:38:37;99115.69;;;24.31
75428;BMP280;64008;55.612;37.698;2023-04-25T12:41:03;99117.19;;;24.28
75428;BMP280;64008;55.612;37.698;2023-04-25T12:43:28;99117.69;;;24.46
75428;BMP280;64008;55.612;37.698;2023-04-25T12:45:55;99113.38;;;24.70
75428;BMP280;64008;55.612;37.698;2023-04-25T12:48:22;99108.75;;;24.70
75428;BMP280;64008;55.612;37.698;2023-04-25T12:50:49;99103.38;;;24.58
75428;BMP280;64008;55.612;37.698;2023-04-25T12:53:17;99109.69;;;24.50
75428;BMP280;64008;55.612;37.698;2023-04-25T12:55:43;99106.41;;;24.57
75428;BMP280;64008;55.612;37.698;2023-04-25T12:58:11;99100.00;;;24.49
75428;BMP280;64008;55.612;37.698;2023-04-25T13:00:36;99081.63;;;24.26
75428;BMP280;64008;55.612;37.698;2023-04-25T13:03:02;99088.34;;;24.33
75428;BMP280;64008;55.612;37.698;2023-04-25T13:05:28;99085.91;;;24.15
75428;BMP280;64008;55.612;37.698;2023-04-25T13:07:55;99083.44;;;24.10
75428;BMP280;64008;55.612;37.698;2023-04-25T13:10:21;99084.22;;;24.23
75428;BMP280;64008;55.612;37.698;2023-04-25T13:12:46;99080.78;;;24.50
75428;BMP280;64008;55.612;37.698;2023-04-25T13:15:12;99074.16;;;24.76
75428;BMP280;64008;55.612;37.698;2023-04-25T13:17:38;99073.78;;;24.90
75428;BMP280;64008;55.612;37.698;2023-04-25T13:20:05;99066.47;;;25.06
75428;BMP280;64008;55.612;37.698;2023-04-25T13:22:38;99063.34;;;25.20
75428;BMP280;64008;55.612;37.698;2023-04-25T13:25:05;99059.00;;;25.31
75428;BMP280;64008;55.612;37.698;2023-04-25T13:27:32;99051.66;;;25.48
75428;BMP280;64008;55.612;37.698;2023-04-25T13:30:03;99059.69;;;25.60
75428;BMP280;64008;55.612;37.698;2023-04-25T13:32:38;99047.09;;;25.67
75428;BMP280;64008;55.612;37.698;2023-04-25T13:35:05;99045.09;;;25.64
75428;BMP280;64008;55.612;37.698;2023-04-25T13:37:31;99040.56;;;25.68
75428;BMP280;64008;55.612;37.698;2023-04-25T13:40:03;99035.78;;;25.62
75428;BMP280;64008;55.612;37.698;2023-04-25T13:42:33;99034.81;;;25.70
75428;BMP280;64008;55.612;37.698;2023-04-25T13:44:58;99034.38;;;25.52
75428;BMP280;64008;55.612;37.698;2023-04-25T13:47:26;99032.72;;;25.48
75428;BMP280;64008;55.612;37.698;2023-04-25T13:49:52;99030.63;;;25.57
75428;BMP280;64008;55.612;37.698;2023-04-25T13:52:18;99021.09;;;25.63
75428;BMP280;64008;55.612;37.698;2023-04-25T13:54:43;99025.38;;;25.64
75428;BMP280;64008;55.612;37.698;2023-04-25T13:57:09;99014.72;;;25.71
75428;BMP280;64008;55.612;37.698;2023-04-25T13:59:36;99020.97;;;25.75
75428;BMP280;64008;55.612;37.698;2023-04-25T14:02:02;99005.53;;;25.76
75428;BMP280;64008;55.612;37.698;2023-04-25T14:04:28;99007.44;;;25.75
75428;BMP280;64008;55.612;37.698;2023-04-25T14:06:53;98992.06;;;25.79